createdAt,value
2018-03-11T00:02:06.893Z,14.70
2018-03-11T00:04:33.822Z,26.63
2018-03-11T00:07:00.054Z,21.37
2018-03-11T00:09:27.146Z,21.43
2018-03-11T00:11:54.037Z,25.77
2018-03-11T00:14:20.194Z,23.27
2018-03-11T00:16:46.358Z,23.50
2018-03-11T00:19:12.525Z,26.50
2018-03-11T00:21:39.459Z,26.67
2018-03-11T00:24:05.630Z,74.13
2018-03-11T00:26:32.528Z,29.23
2018-03-11T00:28:58.712Z,53.97
2018-03-11T00:31:25.650Z,30.03
2018-03-11T00:33:51.823Z,21.00
2018-03-11T00:36:18.749Z,23.63
2018-03-11T00:38:44.907Z,41.70
2018-03-11T00:41:11.828Z,25.03
2018-03-11T00:43:37.989Z,23.53
2018-03-11T00:46:04.153Z,52.27
2018-03-11T00:48:31.084Z,27.93
2018-03-11T00:50:57.278Z,24.83
2018-03-11T00:53:23.437Z,43.93
2018-03-11T00:55:49.600Z,28.37
2018-03-11T00:58:15.768Z,37.13
2018-03-11T01:00:42.674Z,18.13
2018-03-11T01:03:08.944Z,22.80
2018-03-11T01:05:35.141Z,19.60
2018-03-11T01:08:08.326Z,25.00
2018-03-11T01:10:34.627Z,29.00
2018-03-11T01:13:04.008Z,22.03
2018-03-11T01:15:30.169Z,18.03
2018-03-11T01:17:56.603Z,15.33
2018-03-11T01:20:22.806Z,19.00
2018-03-11T01:22:48.962Z,17.33
2018-03-11T01:25:15.095Z,24.97
2018-03-11T01:27:41.253Z,25.90
2018-03-11T01:30:08.299Z,24.73
2018-03-11T01:32:34.531Z,16.77
2018-03-11T01:35:01.062Z,24.17
2018-03-11T01:37:27.369Z,23.57
2018-03-11T01:39:53.575Z,20.90
2018-03-11T01:42:19.781Z,22.33
2018-03-11T01:44:46.716Z,19.43
2018-03-11T01:47:12.873Z,17.83
2018-03-11T01:49:39.785Z,17.33
2018-03-11T01:52:05.932Z,17.27
2018-03-11T01:54:32.092Z,17.67
2018-03-11T01:56:58.990Z,15.17
2018-03-11T01:59:25.149Z,17.97
2018-03-11T02:01:51.317Z,16.17
2018-03-11T02:04:17.439Z,19.27
2018-03-11T02:06:43.957Z,16.63
2018-03-11T02:09:10.426Z,17.47
2018-03-11T02:11:36.925Z,16.77
2018-03-11T02:14:04.988Z,18.87
2018-03-11T02:16:31.477Z,16.20
2018-03-11T02:18:57.665Z,19.03
2018-03-11T02:21:23.868Z,18.40
2018-03-11T02:23:50.030Z,19.83
2018-03-11T02:26:16.925Z,17.87
2018-03-11T02:28:43.791Z,18.10
2018-03-11T02:31:09.978Z,18.10
2018-03-11T02:33:36.230Z,18.20
2018-03-11T02:36:02.405Z,18.10
2018-03-11T02:38:29.306Z,19.17
2018-03-11T02:40:55.525Z,18.20
2018-03-11T02:43:21.696Z,18.80
2018-03-11T02:45:47.880Z,17.90
2018-03-11T02:48:14.761Z,17.20
2018-03-11T02:50:40.929Z,15.97
2018-03-11T02:53:07.091Z,15.63
2018-03-11T02:55:33.268Z,17.80
2018-03-11T02:57:59.420Z,17.37
2018-03-11T03:00:25.598Z,17.73
2018-03-11T03:02:52.597Z,18.80
2018-03-11T03:05:34.627Z,19.67
2018-03-11T03:08:00.781Z,19.23
2018-03-11T03:10:27.036Z,19.83
2018-03-11T03:12:53.215Z,21.43
2018-03-11T03:15:19.407Z,18.43
2018-03-11T03:17:45.548Z,18.97
2018-03-11T03:20:11.686Z,19.57
2018-03-11T03:22:37.841Z,20.00
2018-03-11T03:25:04.027Z,20.50
2018-03-11T03:27:30.945Z,21.03
2018-03-11T03:29:58.006Z,18.33
2018-03-11T03:32:24.128Z,21.30
2018-03-11T03:34:50.310Z,19.57
2018-03-11T03:37:17.246Z,18.40
2018-03-11T03:39:43.432Z,20.73
2018-03-11T03:42:09.565Z,21.10
2018-03-11T03:44:36.483Z,20.07
2018-03-11T03:47:02.653Z,21.03
2018-03-11T03:49:29.540Z,21.83
2018-03-11T03:51:55.757Z,21.40
2018-03-11T03:54:22.640Z,21.93
2018-03-11T03:56:48.828Z,20.40
2018-03-11T03:59:14.966Z,22.67
2018-03-11T04:01:42.169Z,20.97
2018-03-11T04:04:08.352Z,20.80
2018-03-11T04:06:34.560Z,21.97
2018-03-11T04:09:00.729Z,22.13
2018-03-11T04:11:27.920Z,22.70
2018-03-11T04:13:54.833Z,22.50
2018-03-11T04:16:20.958Z,23.30
2018-03-11T04:18:47.133Z,20.63
2018-03-11T04:21:14.011Z,22.30
2018-03-11T04:23:40.140Z,22.10
2018-03-11T04:26:06.317Z,23.20
2018-03-11T04:28:32.463Z,21.03
2018-03-11T04:30:58.614Z,19.97
2018-03-11T04:33:35.989Z,21.03
2018-03-11T04:36:03.243Z,22.63
2018-03-11T04:38:29.407Z,18.90
2018-03-11T04:40:55.574Z,20.30
2018-03-11T04:43:21.729Z,20.47
2018-03-11T04:45:47.909Z,23.73
2018-03-11T04:48:14.800Z,22.97
2018-03-11T04:50:40.931Z,24.57
2018-03-11T04:53:07.113Z,23.07
2018-03-11T04:55:33.259Z,25.37
2018-03-11T04:57:59.415Z,25.43
2018-03-11T05:00:25.579Z,23.47
2018-03-11T05:02:51.761Z,27.37
2018-03-11T05:05:18.945Z,26.97
2018-03-11T05:07:45.097Z,26.67
2018-03-11T05:10:12.009Z,27.63
2018-03-11T05:12:38.169Z,26.20
2018-03-11T05:15:04.340Z,28.50
2018-03-11T05:17:30.515Z,27.77
2018-03-11T05:19:56.723Z,24.23
2018-03-11T05:22:22.886Z,26.90
2018-03-11T05:24:49.026Z,27.13
2018-03-11T05:27:15.188Z,26.97
2018-03-11T05:29:41.337Z,28.90
2018-03-11T05:32:07.518Z,27.43
2018-03-11T05:34:33.961Z,28.00
2018-03-11T05:37:00.125Z,28.37
2018-03-11T05:39:26.298Z,28.17
2018-03-11T05:41:52.484Z,28.17
2018-03-11T05:44:18.617Z,28.47
2018-03-11T05:46:44.753Z,27.27
2018-03-11T05:49:11.673Z,26.33
2018-03-11T05:51:37.881Z,27.03
2018-03-11T05:54:04.268Z,28.27
2018-03-11T05:56:37.042Z,26.90
2018-03-11T05:59:03.221Z,27.53
2018-03-11T06:01:30.140Z,27.83
2018-03-11T06:03:56.297Z,26.67
2018-03-11T06:06:22.485Z,27.67
2018-03-11T06:08:48.629Z,25.90
2018-03-11T06:11:14.861Z,28.27
2018-03-11T06:13:41.031Z,26.63
2018-03-11T06:16:07.186Z,27.10
2018-03-11T06:18:33.355Z,24.23
2018-03-11T06:21:02.404Z,24.07
2018-03-11T06:23:28.553Z,23.40
2018-03-11T06:25:54.726Z,25.20
2018-03-11T06:28:20.911Z,24.03
2018-03-11T06:30:47.090Z,24.00
2018-03-11T06:33:13.281Z,24.03
2018-03-11T06:35:39.481Z,22.10
2018-03-11T06:38:05.969Z,22.47
2018-03-11T06:40:32.111Z,19.03
2018-03-11T06:42:58.280Z,20.40
2018-03-11T06:45:24.444Z,18.67
2018-03-11T06:47:50.573Z,17.33
2018-03-11T06:50:17.489Z,16.30
2018-03-11T06:52:43.636Z,15.97
2018-03-11T06:55:13.236Z,16.27
2018-03-11T06:57:39.389Z,16.10
2018-03-11T07:00:05.664Z,15.90
2018-03-11T07:02:31.822Z,16.03
2018-03-11T07:04:58.430Z,14.80
2018-03-11T07:07:24.615Z,13.23
2018-03-11T07:09:50.780Z,14.60
2018-03-11T07:12:16.985Z,13.87
2018-03-11T07:14:43.141Z,11.87
2018-03-11T07:17:10.097Z,13.57
2018-03-11T07:19:37.051Z,13.57
2018-03-11T07:22:03.970Z,13.13
2018-03-11T07:24:30.191Z,13.53
2018-03-11T07:26:56.387Z,12.17
2018-03-11T07:29:22.548Z,11.83
2018-03-11T07:31:49.462Z,13.03
2018-03-11T07:34:16.339Z,10.70
2018-03-11T07:36:42.519Z,11.63
2018-03-11T07:39:08.701Z,11.87
2018-03-11T07:41:34.914Z,11.57
2018-03-11T07:44:01.072Z,13.00
2018-03-11T07:46:27.251Z,10.70
2018-03-11T07:48:54.287Z,12.13
2018-03-11T07:51:20.607Z,10.37
2018-03-11T07:53:46.830Z,10.83
2018-03-11T07:56:25.813Z,11.20
2018-03-11T07:58:52.042Z,10.73
2018-03-11T08:01:18.181Z,9.33
2018-03-11T08:03:44.336Z,11.23
2018-03-11T08:06:10.517Z,9.97
2018-03-11T08:08:36.697Z,9.60
2018-03-11T08:11:02.961Z,9.33
2018-03-11T08:13:29.868Z,9.03
2018-03-11T08:15:56.025Z,9.17
2018-03-11T08:18:22.931Z,8.70
2018-03-11T08:20:49.822Z,7.27
2018-03-11T08:23:17.022Z,8.57
2018-03-11T08:25:43.244Z,7.93
2018-03-11T08:28:09.486Z,7.73
2018-03-11T08:33:44.056Z,8.03
2018-03-11T08:36:15.908Z,8.53
2018-03-11T08:38:42.164Z,8.73
2018-03-11T08:41:08.839Z,7.10
2018-03-11T08:43:35.744Z,7.43
2018-03-11T08:46:02.247Z,8.13
2018-03-11T08:48:33.306Z,8.30
2018-03-11T08:51:00.471Z,7.87
2018-03-11T08:53:27.526Z,6.30
2018-03-11T08:55:54.603Z,6.23
2018-03-11T08:58:21.643Z,6.20
2018-03-11T09:00:47.991Z,7.60
2018-03-11T09:03:14.387Z,6.60
2018-03-11T09:05:40.733Z,5.73
2018-03-11T09:08:07.120Z,5.83
2018-03-11T09:10:34.191Z,5.53
2018-03-11T09:13:01.699Z,6.30
2018-03-11T09:15:28.055Z,6.00
2018-03-11T09:17:59.638Z,5.60
2018-03-11T09:20:25.990Z,5.60
2018-03-11T09:22:52.296Z,5.93
2018-03-11T09:25:18.679Z,6.33
2018-03-11T09:27:45.055Z,5.57
2018-03-11T09:30:12.733Z,5.90
2018-03-11T09:32:39.894Z,5.30
2018-03-11T09:35:07.224Z,5.57
2018-03-11T09:37:33.743Z,6.20
2018-03-11T09:40:00.105Z,5.20
2018-03-11T09:42:26.414Z,5.60
2018-03-11T09:44:52.698Z,5.40
2018-03-11T09:47:18.973Z,5.90
2018-03-11T09:50:04.725Z,5.30
2018-03-11T09:52:31.173Z,5.57
2018-03-11T09:54:57.501Z,5.30
2018-03-11T09:57:24.234Z,4.80
2018-03-11T09:59:50.537Z,4.40
2018-03-11T10:02:17.024Z,3.90
2018-03-11T10:04:43.290Z,4.70
2018-03-11T10:09:48.034Z,4.20
2018-03-11T10:12:14.332Z,4.33
2018-03-11T10:14:40.675Z,3.80
2018-03-11T10:17:07.040Z,3.60
2018-03-11T10:19:33.378Z,3.80
2018-03-11T10:22:00.634Z,3.40
2018-03-11T10:24:27.006Z,3.83
2018-03-11T10:26:53.994Z,3.10
2018-03-11T10:29:20.217Z,2.73
2018-03-11T10:31:55.369Z,2.50
2018-03-11T10:34:21.578Z,2.60
2018-03-11T10:36:47.860Z,2.00
2018-03-11T10:39:14.136Z,2.37
2018-03-11T10:41:41.426Z,2.20
2018-03-11T10:44:07.681Z,2.10
2018-03-11T10:46:34.811Z,2.10
2018-03-11T10:49:01.293Z,1.80
2018-03-11T10:51:28.278Z,1.77
2018-03-11T10:53:54.541Z,1.73
2018-03-11T10:56:22.376Z,1.80
2018-03-11T10:58:48.666Z,1.57
2018-03-11T11:01:14.970Z,1.60
2018-03-11T11:03:47.399Z,1.70
2018-03-11T11:06:14.235Z,1.50
2018-03-11T11:08:52.558Z,1.57
2018-03-11T11:11:18.885Z,1.50
2018-03-11T11:13:45.241Z,2.00
2018-03-11T11:16:11.533Z,2.20
2018-03-11T11:18:40.691Z,1.97
2018-03-11T11:21:07.097Z,2.10
2018-03-11T11:23:33.393Z,1.97
2018-03-11T11:25:59.722Z,2.20
2018-03-11T11:28:26.108Z,2.13
2018-03-11T11:30:52.433Z,1.90
2018-03-11T11:33:18.762Z,2.10
2018-03-11T11:35:45.109Z,1.90
2018-03-11T11:38:11.371Z,1.90
2018-03-11T11:40:38.022Z,1.90
2018-03-11T11:43:05.360Z,1.70
2018-03-11T11:45:32.996Z,1.97
2018-03-11T11:48:00.292Z,1.57
2018-03-11T11:50:26.654Z,1.70
2018-03-11T11:52:57.627Z,1.57
2018-03-11T11:55:23.988Z,1.53
2018-03-11T11:57:50.298Z,1.63
2018-03-11T12:00:16.584Z,1.83
2018-03-11T12:02:42.960Z,1.70
2018-03-11T12:05:09.322Z,1.77
2018-03-11T12:07:36.469Z,1.30
2018-03-11T12:10:02.901Z,1.50
2018-03-11T12:12:29.438Z,1.23
2018-03-11T12:14:55.735Z,1.30
2018-03-11T12:17:22.007Z,1.50
2018-03-11T12:19:48.977Z,2.00
2018-03-11T12:22:15.334Z,1.60
2018-03-11T12:24:41.747Z,1.30
2018-03-11T12:27:08.197Z,1.30
2018-03-11T12:29:35.888Z,1.50
2018-03-11T12:32:02.239Z,1.73
2018-03-11T12:34:28.931Z,1.20
2018-03-11T12:36:55.205Z,1.70
2018-03-11T12:39:22.238Z,1.00
2018-03-11T12:41:48.525Z,1.00
2018-03-11T12:44:15.566Z,0.90
2018-03-11T12:46:41.913Z,1.40
2018-03-11T12:49:08.971Z,1.20
2018-03-11T12:51:35.660Z,2.20
2018-03-11T12:54:02.350Z,1.57
2018-03-11T12:56:29.380Z,1.93
2018-03-11T12:58:59.301Z,2.10
2018-03-11T13:01:26.851Z,1.60
2018-03-11T13:03:53.820Z,1.80
2018-03-11T13:06:20.142Z,1.77
2018-03-11T13:08:47.158Z,1.63
2018-03-11T13:11:13.381Z,1.70
2018-03-11T13:13:39.714Z,1.80
2018-03-11T13:16:06.050Z,1.53
2018-03-11T13:18:37.797Z,1.53
2018-03-11T13:21:08.585Z,1.60
2018-03-11T13:23:35.038Z,1.73
2018-03-11T13:29:19.394Z,1.60
2018-03-11T13:31:46.379Z,1.90
2018-03-11T13:34:24.916Z,1.80
2018-03-11T13:36:51.160Z,1.50
2018-03-11T13:39:29.703Z,1.77
2018-03-11T13:41:55.913Z,2.00
2018-03-11T13:44:22.904Z,2.03
2018-03-11T13:47:11.187Z,2.10
2018-03-11T13:49:38.181Z,2.13
2018-03-11T13:52:17.531Z,2.00
2018-03-11T13:54:44.566Z,2.13
2018-03-11T14:00:20.782Z,1.77
2018-03-11T14:02:46.949Z,1.50
2018-03-11T14:05:13.841Z,1.70
2018-03-11T14:07:40.013Z,1.60
2018-03-11T14:10:06.272Z,1.57
2018-03-11T14:12:32.423Z,2.00
2018-03-11T14:14:59.352Z,2.00
2018-03-11T14:17:25.512Z,1.97
2018-03-11T14:19:52.382Z,2.10
2018-03-11T14:22:36.830Z,2.20
2018-03-11T14:25:03.040Z,2.33
2018-03-11T14:27:29.602Z,2.40
2018-03-11T14:30:09.897Z,2.43
2018-03-11T14:32:36.875Z,2.07
2018-03-11T14:35:09.452Z,2.30
2018-03-11T14:37:38.389Z,2.40
2018-03-11T14:40:04.590Z,2.60
2018-03-11T14:42:31.505Z,2.53
2018-03-11T14:44:57.677Z,2.20
2018-03-11T14:47:24.032Z,2.50
2018-03-11T14:49:50.979Z,2.30
2018-03-11T14:52:17.148Z,3.00
2018-03-11T14:54:43.402Z,2.67
2018-03-11T14:57:09.625Z,2.40
2018-03-11T14:59:51.023Z,2.60
2018-03-11T15:02:21.655Z,2.43
2018-03-11T15:05:09.111Z,2.30
2018-03-11T15:07:36.500Z,2.67
2018-03-11T15:10:04.874Z,3.00
2018-03-11T15:12:33.199Z,2.90
2018-03-11T15:15:01.334Z,2.90
2018-03-11T15:17:28.806Z,3.17
2018-03-11T15:19:55.753Z,2.87
2018-03-11T15:22:21.918Z,3.23
2018-03-11T15:24:48.131Z,3.30
2018-03-11T15:27:15.029Z,3.40
2018-03-11T15:29:41.214Z,3.87
2018-03-11T15:32:07.496Z,3.70
2018-03-11T15:34:33.649Z,3.50
2018-03-11T15:37:06.214Z,3.10
2018-03-11T15:39:33.157Z,2.93
2018-03-11T15:42:04.337Z,2.90
2018-03-11T15:44:30.520Z,2.90
2018-03-11T15:46:57.435Z,2.70
2018-03-11T15:49:23.597Z,2.60
2018-03-11T15:51:54.173Z,2.60
2018-03-11T15:54:20.509Z,2.73
2018-03-11T15:56:46.791Z,2.57
2018-03-11T15:59:13.774Z,2.67
2018-03-11T16:01:39.995Z,3.80
2018-03-11T16:04:14.205Z,2.70
2018-03-11T16:06:40.606Z,2.37
2018-03-11T16:09:07.213Z,2.67
2018-03-11T16:11:37.888Z,2.70
2018-03-11T16:14:11.917Z,2.67
2018-03-11T16:16:39.850Z,2.67
2018-03-11T16:19:06.389Z,2.80
2018-03-11T16:21:32.614Z,4.30
2018-03-11T16:23:58.853Z,2.90
2018-03-11T16:26:25.892Z,3.20
2018-03-11T16:28:54.312Z,2.70
2018-03-11T16:31:20.631Z,2.80
2018-03-11T16:33:56.075Z,3.70
2018-03-11T16:36:22.505Z,3.90
2018-03-11T16:38:50.947Z,4.13
2018-03-11T16:41:17.168Z,3.20
2018-03-11T16:43:43.459Z,2.40
2018-03-11T16:46:10.450Z,2.83
2018-03-11T16:48:40.524Z,2.70
2018-03-11T16:51:07.566Z,2.67
2018-03-11T16:53:34.596Z,2.53
2018-03-11T16:56:05.031Z,3.60
2018-03-11T16:58:33.342Z,3.80
2018-03-11T17:00:59.568Z,3.70
2018-03-11T17:03:27.789Z,3.70
2018-03-11T17:05:53.989Z,3.53
2018-03-11T17:08:20.219Z,10.47
2018-03-11T17:10:48.270Z,5.70
2018-03-11T17:13:15.154Z,6.40
2018-03-11T17:15:41.785Z,6.50
2018-03-11T17:18:08.058Z,5.93
2018-03-11T17:20:35.049Z,5.73
2018-03-11T17:23:01.338Z,6.33
2018-03-11T17:25:32.157Z,6.50
2018-03-11T17:27:58.471Z,6.37
2018-03-11T17:30:24.794Z,8.13
2018-03-11T17:32:51.732Z,6.10
2018-03-11T17:35:17.884Z,5.70
2018-03-11T17:37:44.805Z,7.17
2018-03-11T17:40:10.948Z,7.07
2018-03-11T17:42:37.317Z,7.33
2018-03-11T17:45:04.678Z,7.13
2018-03-11T17:47:30.955Z,7.00
2018-03-11T17:49:57.122Z,6.50
2018-03-11T17:52:23.269Z,9.63
2018-03-11T17:54:49.457Z,6.50
2018-03-11T17:57:18.371Z,8.20
2018-03-11T17:59:46.503Z,6.50
2018-03-11T18:02:13.785Z,6.90
2018-03-11T18:04:40.000Z,7.40
2018-03-11T18:07:06.550Z,6.87
2018-03-11T18:09:34.869Z,7.60
2018-03-11T18:12:02.495Z,6.77
2018-03-11T18:14:28.757Z,8.17
2018-03-11T18:16:55.363Z,8.43
2018-03-11T18:19:22.670Z,8.47
2018-03-11T18:21:48.916Z,8.77
2018-03-11T18:24:15.901Z,8.70
2018-03-11T18:26:43.933Z,8.87
2018-03-11T18:29:10.275Z,9.27
2018-03-11T18:31:36.688Z,11.73
2018-03-11T18:34:03.776Z,10.70
2018-03-11T18:36:43.093Z,9.83
2018-03-11T18:39:09.454Z,10.37
2018-03-11T18:41:36.737Z,20.93
2018-03-11T18:44:03.022Z,12.57
2018-03-11T18:46:29.562Z,11.43
2018-03-11T18:48:56.992Z,10.37
2018-03-11T18:51:24.557Z,9.60
2018-03-11T18:53:50.723Z,10.77
2018-03-11T18:56:17.096Z,11.43
2018-03-11T18:58:44.335Z,11.57
2018-03-11T19:01:12.770Z,10.63
2018-03-11T19:03:39.325Z,10.57
2018-03-11T19:06:05.753Z,12.50
2018-03-11T19:08:36.029Z,12.60
2018-03-11T19:11:03.384Z,12.07
2018-03-11T19:13:30.720Z,11.50
2018-03-11T19:15:56.974Z,15.07
2018-03-11T19:18:23.402Z,13.47
2018-03-11T19:20:56.275Z,14.87
2018-03-11T19:23:22.976Z,16.37
2018-03-11T19:25:49.538Z,18.60
2018-03-11T19:28:17.981Z,19.67
2018-03-11T19:30:58.262Z,15.10
2018-03-11T19:33:28.209Z,16.17
2018-03-11T19:35:54.509Z,16.37
2018-03-11T19:38:26.943Z,16.33
2018-03-11T19:40:59.364Z,17.77
2018-03-11T19:43:25.893Z,18.23
2018-03-11T19:45:52.177Z,18.80
2018-03-11T19:48:18.583Z,26.80
2018-03-11T19:50:48.564Z,21.73
2018-03-11T19:53:14.847Z,29.03
2018-03-11T19:55:42.176Z,20.70
2018-03-11T19:58:10.872Z,20.67
2018-03-11T20:00:48.185Z,20.40
2018-03-11T20:03:21.217Z,24.07
2018-03-11T20:05:47.653Z,21.73
2018-03-11T20:08:39.379Z,21.20
2018-03-11T20:11:05.724Z,21.40
2018-03-11T20:13:32.126Z,22.77
2018-03-11T20:15:58.852Z,21.97
2018-03-11T20:18:25.975Z,21.47
2018-03-11T20:20:52.413Z,23.03
2018-03-11T20:23:18.736Z,25.00
2018-03-11T20:25:45.080Z,26.23
2018-03-11T20:28:12.205Z,22.17
2018-03-11T20:30:38.675Z,22.03
2018-03-11T20:33:05.219Z,23.43
2018-03-11T20:35:31.534Z,28.13
2018-03-11T20:37:59.880Z,24.23
2018-03-11T20:40:31.176Z,23.10
2018-03-11T20:43:08.798Z,26.27
2018-03-11T20:45:37.475Z,24.20
2018-03-11T20:48:03.936Z,22.47
2018-03-11T20:50:30.382Z,24.80
2018-03-11T20:52:59.028Z,23.77
2018-03-11T20:55:25.371Z,21.57
2018-03-11T20:57:52.620Z,24.53
2018-03-11T21:00:19.737Z,23.10
2018-03-11T21:02:47.625Z,23.27
2018-03-11T21:05:13.959Z,23.23
2018-03-11T21:07:40.278Z,25.97
2018-03-11T21:10:06.655Z,23.40
2018-03-11T21:12:32.986Z,23.53
2018-03-11T21:14:59.322Z,23.37
2018-03-11T21:17:44.069Z,24.37
2018-03-11T21:20:12.782Z,25.00
2018-03-11T21:22:39.530Z,23.53
2018-03-11T21:25:06.009Z,24.37
2018-03-11T21:27:33.205Z,24.93
2018-03-11T21:29:59.535Z,24.27
2018-03-11T21:32:31.021Z,24.30
2018-03-11T21:34:58.377Z,25.13
2018-03-11T21:37:25.648Z,24.10
2018-03-11T21:39:52.722Z,25.40
2018-03-11T21:42:27.150Z,25.63
2018-03-11T21:44:53.569Z,26.70
2018-03-11T21:47:34.914Z,25.00
2018-03-11T21:50:09.993Z,25.37
2018-03-11T21:52:36.483Z,25.83
2018-03-11T21:55:03.827Z,26.23
2018-03-11T21:57:30.365Z,25.93
2018-03-11T21:59:56.644Z,25.40
2018-03-11T22:02:23.096Z,26.10
2018-03-11T22:04:49.387Z,24.67
2018-03-11T22:07:15.931Z,26.70
2018-03-11T22:09:42.334Z,28.00
2018-03-11T22:12:09.357Z,27.30
2018-03-11T22:14:35.864Z,26.73
2018-03-11T22:17:07.208Z,26.57
2018-03-11T22:19:33.730Z,25.90
2018-03-11T22:22:04.184Z,26.97
2018-03-11T22:24:30.602Z,28.73
2018-03-11T22:26:57.041Z,26.13
2018-03-11T22:29:23.507Z,26.00
2018-03-11T22:31:50.551Z,27.70
2018-03-11T22:34:16.862Z,27.70
2018-03-11T22:36:43.235Z,26.40
2018-03-11T22:39:10.227Z,28.30
2018-03-11T22:41:37.481Z,27.53
2018-03-11T22:44:04.099Z,28.80
2018-03-11T22:46:30.660Z,27.13
2018-03-11T22:48:57.263Z,26.23
2018-03-11T22:51:23.639Z,27.30
2018-03-11T22:53:50.196Z,27.30
2018-03-11T22:56:16.492Z,27.67
2018-03-11T22:58:43.618Z,27.67
2018-03-11T23:01:10.484Z,26.07
2018-03-11T23:03:37.924Z,27.33
2018-03-11T23:06:04.435Z,26.13
2018-03-11T23:08:31.824Z,26.93
2018-03-11T23:10:58.623Z,26.07
2018-03-11T23:13:25.884Z,28.73
2018-03-11T23:15:52.428Z,27.50
2018-03-11T23:18:18.733Z,27.23
2018-03-11T23:20:45.066Z,27.43
2018-03-11T23:23:11.610Z,25.73
2018-03-11T23:25:38.088Z,28.10
2018-03-11T23:28:05.819Z,28.63
2018-03-11T23:30:32.208Z,26.60
2018-03-11T23:32:58.592Z,27.40
2018-03-11T23:35:24.941Z,26.73
2018-03-11T23:37:52.105Z,25.97
2018-03-11T23:40:19.378Z,26.43
2018-03-11T23:42:46.592Z,28.13
2018-03-11T23:45:13.153Z,27.83
2018-03-11T23:47:39.583Z,30.30
2018-03-11T23:50:05.972Z,29.90
2018-03-11T23:52:33.349Z,27.73
2018-03-11T23:54:59.967Z,28.60
2018-03-11T23:57:27.100Z,28.07
2018-03-11T23:59:53.433Z,28.93
